Decoded Metar for VVPQ (PHUQUOC in VIET NAM) (IATA:N/A) | Meteo·Mobile Aviation Weather
aviador You're here:

VVPQ Decoded Metar

PHUQUOC in VIET NAM
Report Time2019-10-21 06:30:00
UTC Time2019-10-21 07:09:41
Flight Rules vfr VFR
Wind100° at 09 kt
W.Decomp.*RWY 08: 8.5 kt HW 3.1 kt RCW
Visibility9999 m
Phenomena:N/A
Clouds:Few 015 Hf
Expected CloudBase > 2,400 ft AGL from Temp-Dew spread
CeilingNone
Temp31°C (ISA +16)
Dew Point25°C (70% RH)
Heat Index37.6°C
QNH1008 hPa
Density Alt2,441 ft
Elevation23 ft
Report Wrong Elevation
Raw Report
METAR COR VVPQ 210630Z 10009KT 070V130 9999 FEW015 31/25 Q1008 NOSIG=####018000502####
SAFI31 EFKL 210650

Extra information for VVPQ:More info

Metar Taf Metar & Taf Last 4 Metars F.Rules Stats Wind Profile Meteogram Temp Stats Airport Information Weather charts Add Link Nearby VenuesMetar ALERT Operation Metar Decoded Social comments